createdAt,value
2015-10-31T11:59:04.226Z,20
2015-10-31T11:59:16.758Z,20
2015-10-31T11:59:45.824Z,20
2015-10-31T11:59:57.918Z,20
2015-10-31T12:00:10.574Z,20
2015-10-31T12:00:23.871Z,20
2015-10-31T12:00:38.949Z,20
2015-10-31T12:00:51.390Z,21
2015-10-31T12:01:03.405Z,20
2015-10-31T12:01:16.202Z,20
2015-10-31T12:01:28.843Z,21
2015-10-31T12:01:41.218Z,20
2015-10-31T12:01:54.454Z,20
2015-10-31T12:02:06.657Z,20
2015-10-31T12:02:19.126Z,20
2015-10-31T12:02:31.142Z,20
2015-10-31T12:02:43.048Z,21
2015-10-31T12:02:55.410Z,20
2015-10-31T12:03:07.426Z,20
2015-10-31T12:03:20.410Z,20
2015-10-31T12:03:33.598Z,20
2015-10-31T12:03:48.959Z,20
2015-10-31T12:04:00.990Z,20
2015-10-31T12:04:13.990Z,20
2015-10-31T12:04:26.772Z,20
2015-10-31T12:04:38.787Z,20
2015-10-31T12:04:50.900Z,20
2015-10-31T12:05:02.884Z,20
2015-10-31T12:05:14.775Z,21
2015-10-31T12:05:26.806Z,20
2015-10-31T12:05:38.743Z,20
2015-10-31T12:05:51.246Z,20
2015-10-31T12:06:03.278Z,21
2015-10-31T12:06:15.293Z,20
2015-10-31T12:06:27.621Z,21
2015-10-31T12:06:39.684Z,20
2015-10-31T12:06:51.749Z,20
2015-10-31T12:07:04.249Z,20
2015-10-31T12:07:16.187Z,20
2015-10-31T12:07:28.859Z,20
2015-10-31T12:07:40.890Z,20
2015-10-31T12:07:56.439Z,21
2015-10-31T12:08:12.642Z,21
2015-10-31T12:08:25.548Z,21
2015-10-31T12:08:37.939Z,20
2015-10-31T12:08:50.817Z,21
2015-10-31T12:09:03.161Z,21
2015-10-31T12:09:16.254Z,20
2015-10-31T12:09:28.270Z,21
2015-10-31T12:09:40.723Z,20
2015-10-31T12:09:53.147Z,20
2015-10-31T12:10:05.366Z,20
2015-10-31T12:10:17.444Z,20
2015-10-31T12:10:29.475Z,20
2015-10-31T12:10:41.569Z,20
2015-10-31T12:10:53.884Z,21
2015-10-31T12:11:06.744Z,21
2015-10-31T12:11:18.713Z,20
2015-10-31T12:11:31.244Z,20
2015-10-31T12:11:43.244Z,21
2015-10-31T12:11:55.278Z,21
2015-10-31T12:12:07.684Z,21
2015-10-31T12:12:19.919Z,20
2015-10-31T12:12:32.606Z,20
2015-10-31T12:12:45.028Z,21
2015-10-31T12:12:57.578Z,21
2015-10-31T12:13:10.390Z,20
2015-10-31T12:13:23.484Z,20
2015-10-31T12:13:36.265Z,21
2015-10-31T12:13:48.736Z,20
2015-10-31T12:14:04.908Z,21
2015-10-31T12:14:16.861Z,20
2015-10-31T12:14:29.689Z,20
2015-10-31T12:14:41.939Z,20
2015-10-31T12:14:53.974Z,21
2015-10-31T12:15:05.974Z,20
2015-10-31T12:15:17.989Z,21
2015-10-31T12:15:29.927Z,21
2015-10-31T12:15:41.880Z,21
2015-10-31T12:15:55.180Z,20
2015-10-31T12:16:07.148Z,20
2015-10-31T12:16:19.055Z,20
2015-10-31T12:16:31.648Z,21
2015-10-31T12:16:43.945Z,20
2015-10-31T12:16:56.322Z,20
2015-10-31T12:17:08.666Z,20
2015-10-31T12:17:20.791Z,21
2015-10-31T12:17:33.385Z,21
2015-10-31T12:17:45.525Z,21
2015-10-31T12:17:57.966Z,20
2015-10-31T12:18:10.513Z,21
2015-10-31T12:18:23.716Z,20
2015-10-31T12:18:35.700Z,20
2015-10-31T12:18:47.781Z,20
2015-10-31T12:19:00.203Z,20
2015-10-31T12:19:12.235Z,21
2015-10-31T12:19:24.547Z,20
2015-10-31T12:19:36.875Z,21
2015-10-31T12:19:49.330Z,21
2015-10-31T12:20:01.893Z,21
2015-10-31T12:20:13.877Z,20
2015-10-31T12:20:26.674Z,20
2015-10-31T12:20:38.846Z,21
2015-10-31T12:20:51.193Z,20
2015-10-31T12:21:04.224Z,21
2015-10-31T12:21:16.255Z,20
2015-10-31T12:21:29.099Z,21
2015-10-31T12:21:41.677Z,21
2015-10-31T12:21:53.727Z,21
2015-10-31T12:22:06.118Z,20
2015-10-31T12:22:18.446Z,21
2015-10-31T12:22:30.930Z,20
2015-10-31T12:22:42.852Z,21
2015-10-31T12:22:55.291Z,21
2015-10-31T12:23:07.260Z,21
2015-10-31T12:23:19.245Z,21
2015-10-31T12:23:32.291Z,21
2015-10-31T12:23:44.588Z,20
2015-10-31T12:23:56.607Z,21
2015-10-31T12:24:08.498Z,21
2015-10-31T12:24:20.466Z,20
2015-10-31T12:24:32.998Z,20
2015-10-31T12:24:44.841Z,20
2015-10-31T12:24:56.719Z,21
2015-10-31T12:25:08.641Z,21
2015-10-31T12:25:20.501Z,20
2015-10-31T12:25:33.001Z,21
2015-10-31T12:25:45.063Z,21
2015-10-31T12:25:57.535Z,21
2015-10-31T12:26:10.066Z,21
2015-10-31T12:26:24.363Z,20
2015-10-31T12:26:37.222Z,20
2015-10-31T12:26:51.052Z,21
2015-10-31T12:27:04.052Z,21
2015-10-31T12:27:16.037Z,21
2015-10-31T12:27:30.006Z,21
2015-10-31T12:27:42.443Z,21
2015-10-31T12:27:54.899Z,21
2015-10-31T12:28:07.040Z,21
2015-10-31T12:28:19.571Z,21
2015-10-31T12:28:31.634Z,21
2015-10-31T12:28:44.243Z,21
2015-10-31T12:28:56.293Z,20
2015-10-31T12:29:08.824Z,21
2015-10-31T12:29:20.902Z,21
2015-10-31T12:29:37.308Z,20
2015-10-31T12:29:54.123Z,21
2015-10-31T12:30:06.482Z,20
2015-10-31T12:30:21.576Z,20
2015-10-31T12:30:33.982Z,21
2015-10-31T12:30:51.485Z,21
2015-10-31T12:31:03.548Z,21
2015-10-31T12:31:15.610Z,21
2015-10-31T12:31:28.735Z,21
2015-10-31T12:31:41.595Z,20
2015-10-31T12:31:53.395Z,21
2015-10-31T12:32:05.238Z,21
2015-10-31T12:32:17.145Z,21
2015-10-31T12:32:35.988Z,21
2015-10-31T12:32:48.332Z,21
2015-10-31T12:33:00.193Z,20
2015-10-31T12:33:12.053Z,21
2015-10-31T12:33:24.443Z,21
2015-10-31T12:33:36.881Z,21
2015-10-31T12:33:50.365Z,21
2015-10-31T12:34:05.306Z,21
2015-10-31T12:34:17.196Z,21
2015-10-31T12:34:29.493Z,21
2015-10-31T12:34:41.556Z,21
2015-10-31T12:34:53.965Z,21
2015-10-31T12:35:05.981Z,20
2015-10-31T12:35:22.090Z,21
2015-10-31T12:35:34.684Z,21
2015-10-31T12:35:47.543Z,21
2015-10-31T19:00:39.187Z,17
2015-10-31T19:00:54.171Z,16
2015-10-31T19:01:08.968Z,16
2015-10-31T19:01:24.158Z,17
2015-10-31T19:01:37.627Z,15
2015-10-31T19:01:52.455Z,15
2015-10-31T19:02:06.471Z,15
2015-10-31T19:02:20.862Z,16
2015-10-31T19:02:33.458Z,14
2015-10-31T19:02:51.552Z,14
2015-10-31T19:03:04.521Z,14
2015-10-31T19:03:17.708Z,14
2015-10-31T19:03:31.102Z,14
2015-10-31T19:03:44.414Z,14
2015-10-31T19:03:57.977Z,14
2015-10-31T19:04:11.649Z,14
2015-10-31T19:04:24.510Z,14
2015-10-31T19:04:38.354Z,14
2015-10-31T19:04:54.745Z,13
2015-10-31T19:05:11.948Z,13
2015-10-31T19:11:09.214Z,13
2015-10-31T19:11:21.479Z,12
2015-10-31T19:11:37.795Z,12
2015-10-31T19:11:50.404Z,12
2015-10-31T19:12:03.076Z,12
2015-10-31T19:12:16.014Z,12
2015-10-31T19:30:29.703Z,11
2015-10-31T19:30:45.441Z,11
2015-10-31T19:30:58.066Z,11
2015-10-31T19:31:10.753Z,11
2015-10-31T19:31:23.034Z,11
2015-10-31T19:31:35.737Z,11
2015-10-31T19:31:50.802Z,12
2015-10-31T19:32:03.818Z,11
2015-10-31T19:32:17.614Z,11
2015-10-31T19:32:29.896Z,11
2015-10-31T19:32:42.193Z,11
2015-10-31T19:32:54.867Z,11
2015-10-31T19:33:07.758Z,12
2015-10-31T19:33:22.180Z,11
2015-10-31T19:33:34.664Z,11
2015-10-31T19:33:47.105Z,11
2015-10-31T19:33:59.714Z,11
2015-10-31T19:34:12.261Z,12
2015-10-31T19:34:29.058Z,11
2015-10-31T19:34:41.652Z,12
2015-10-31T19:34:54.482Z,12
2015-10-31T19:35:10.310Z,11
2015-10-31T19:35:24.247Z,11
2015-10-31T19:35:37.091Z,11
2015-10-31T19:35:49.750Z,11
2015-10-31T19:36:02.563Z,11
2015-10-31T19:36:18.344Z,11
2015-10-31T19:36:31.672Z,11
2015-10-31T19:36:44.579Z,11
2015-10-31T19:37:04.003Z,11
2015-10-31T19:37:18.675Z,11
2015-10-31T19:37:33.066Z,11
2015-10-31T19:37:46.050Z,11
2015-10-31T19:37:59.052Z,11
2015-10-31T19:38:20.709Z,11
2015-10-31T20:12:25.942Z,10
2015-10-31T20:12:39.270Z,10
2015-10-31T20:12:51.427Z,10
2015-10-31T20:13:03.770Z,11
2015-10-31T20:13:15.867Z,10
2015-10-31T20:13:27.820Z,10
2015-10-31T20:13:39.805Z,10
2015-10-31T20:13:51.789Z,10
2015-10-31T20:14:04.226Z,10
2015-10-31T20:14:16.244Z,10
2015-10-31T20:14:28.400Z,12
2015-10-31T20:14:41.853Z,10
2015-10-31T20:14:54.244Z,10
2015-10-31T20:15:06.744Z,10
2015-10-31T20:15:19.920Z,10
2015-10-31T20:15:32.326Z,12
2015-10-31T20:15:45.311Z,10
2015-10-31T20:16:03.061Z,12
2015-10-31T20:16:15.953Z,10
2015-10-31T20:16:31.875Z,10
2015-10-31T20:16:45.734Z,12
2015-10-31T20:16:58.172Z,10
2015-10-31T20:17:11.065Z,10
2015-10-31T20:17:23.518Z,10
2015-10-31T20:17:36.080Z,11
2015-10-31T20:17:48.877Z,11
2015-10-31T20:18:01.549Z,10
2015-10-31T20:18:13.708Z,12
2015-10-31T20:18:26.021Z,10
2015-10-31T20:18:38.239Z,11
2015-10-31T20:18:50.364Z,10
2015-10-31T20:19:03.036Z,10
2015-10-31T20:19:16.430Z,10
2015-10-31T20:19:29.383Z,10
2015-10-31T20:19:41.664Z,10
2015-10-31T20:19:54.133Z,11
2015-10-31T20:20:06.899Z,10
2015-10-31T20:20:22.214Z,10
2015-10-31T20:20:35.027Z,10
2015-10-31T20:20:47.292Z,10
2015-10-31T20:20:59.652Z,11
2015-10-31T20:21:11.826Z,10
2015-10-31T20:21:25.044Z,10
2015-10-31T20:21:41.122Z,10
2015-10-31T20:21:54.029Z,10
2015-10-31T20:22:06.951Z,10
2015-10-31T20:22:20.313Z,11
2015-10-31T20:22:33.110Z,11
2015-10-31T20:22:45.813Z,10
2015-10-31T20:22:58.610Z,11
2015-10-31T20:23:12.003Z,12
2015-10-31T20:23:25.660Z,10
2015-10-31T20:23:37.800Z,10
2015-10-31T20:23:49.832Z,10
2015-10-31T20:24:01.925Z,10
2015-10-31T20:24:14.850Z,11
2015-10-31T20:24:27.866Z,10
2015-10-31T20:24:39.944Z,10
2015-10-31T20:24:52.085Z,11
2015-10-31T20:25:04.710Z,11
2015-10-31T20:25:16.775Z,10
2015-10-31T20:25:28.947Z,10
2015-10-31T20:25:40.947Z,10
2015-10-31T20:25:53.072Z,10
2015-10-31T20:26:08.213Z,11
2015-10-31T20:26:20.371Z,10
2015-10-31T20:26:33.136Z,10
2015-10-31T20:26:45.965Z,10
2015-10-31T20:26:58.043Z,10
2015-10-31T20:27:10.808Z,10
2015-10-31T20:27:22.982Z,10
2015-10-31T20:27:35.123Z,10
2015-10-31T20:27:47.263Z,10
2015-10-31T20:27:59.482Z,12
2015-10-31T20:28:12.173Z,10
2015-10-31T20:28:28.704Z,11
2015-10-31T20:28:46.266Z,10
2015-10-31T20:29:01.516Z,10
2015-10-31T20:29:20.761Z,10
2015-10-31T20:29:33.386Z,10
2015-10-31T20:29:46.605Z,10
2015-10-31T20:29:59.808Z,10
2015-10-31T20:30:12.475Z,10
2015-10-31T20:30:26.881Z,10
2015-10-31T20:30:43.147Z,10
2015-10-31T20:31:00.647Z,10
2015-10-31T20:31:13.032Z,10
2015-10-31T20:31:38.079Z,10
2015-10-31T20:31:53.188Z,11
2015-10-31T20:32:09.454Z,10
2015-10-31T20:32:24.480Z,10
2015-10-31T20:32:37.449Z,10
2015-10-31T20:32:49.620Z,10
2015-10-31T20:33:01.949Z,10
2015-10-31T20:33:17.005Z,10
2015-10-31T20:33:29.443Z,10
2015-10-31T20:33:59.349Z,10
2015-10-31T20:34:18.583Z,10
2015-10-31T20:34:33.318Z,10
2015-10-31T20:34:49.833Z,10
2015-10-31T20:35:09.130Z,10
2015-10-31T20:35:23.036Z,10
2015-10-31T20:35:39.099Z,11
2015-10-31T20:35:53.333Z,10
2015-10-31T20:36:06.896Z,10
2015-10-31T20:36:21.114Z,10
